Alma, New Mexico
Current Conditions -  °F | °C
As of 1:15 PM on Monday 26 Jan 2015 (Local Time) from KSVC Reporting Station
Clear Clear  
Wind Chill: 57°   Ceiling: Unl
Heat Index: 57°   Visibility: 10mi
Dew Point: 18°   Wind: 7mph
Humidity: 21%   Direction: 130°SE
Pressure: 30.31"   Gusts: NA
Location:  33.3051°N, 108.67°W
Report Text: KSVC 262015Z AUTO 13006KT 10SM CLR 14/M08 A3031 RMK AO2
Loading
Personal Weather Stations






























Interactive Weather Map New forecast layout! Learn more

10-Day Weather Forecast

Advertisements
Track Severe Weather on mobile